sensor_id;sensor_type;location;lat;lon;timestamp;temperature;humidity
10316;DHT22;5203;48.976;8.306;2022-11-04T00:00:52;11.20;99.90
10316;DHT22;5203;48.976;8.306;2022-11-04T00:03:18;11.20;99.90
10316;DHT22;5203;48.976;8.306;2022-11-04T00:05:44;11.30;99.90
10316;DHT22;5203;48.976;8.306;2022-11-04T00:08:09;11.20;99.90
10316;DHT22;5203;48.976;8.306;2022-11-04T00:10:54;11.10;99.90
10316;DHT22;5203;48.976;8.306;2022-11-04T00:13:38;11.20;99.90
10316;DHT22;5203;48.976;8.306;2022-11-04T00:16:04;11.10;99.90
10316;DHT22;5203;48.976;8.306;2022-11-04T00:18:49;11.20;99.90
10316;DHT22;5203;48.976;8.306;2022-11-04T00:21:14;11.20;99.90
10316;DHT22;5203;48.976;8.306;2022-11-04T00:23:59;11.20;99.90
10316;DHT22;5203;48.976;8.306;2022-11-04T00:26:43;11.20;99.90
10316;DHT22;5203;48.976;8.306;2022-11-04T00:29:27;11.10;99.90
10316;DHT22;5203;48.976;8.306;2022-11-04T00:31:53;11.10;99.90
10316;DHT22;5203;48.976;8.306;2022-11-04T00:34:37;11.00;99.90
10316;DHT22;5203;48.976;8.306;2022-11-04T00:37:03;11.10;99.90
10316;DHT22;5203;48.976;8.306;2022-11-04T00:39:29;11.10;99.90
10316;DHT22;5203;48.976;8.306;2022-11-04T00:41:55;11.10;99.90
10316;DHT22;5203;48.976;8.306;2022-11-04T00:44:20;11.10;99.90
10316;DHT22;5203;48.976;8.306;2022-11-04T00:46:46;11.10;99.90
10316;DHT22;5203;48.976;8.306;2022-11-04T00:49:12;11.00;99.90
10316;DHT22;5203;48.976;8.306;2022-11-04T00:51:38;11.00;99.90
10316;DHT22;5203;48.976;8.306;2022-11-04T00:54:03;11.00;99.90
10316;DHT22;5203;48.976;8.306;2022-11-04T00:56:29;11.00;99.90
10316;DHT22;5203;48.976;8.306;2022-11-04T00:58:55;11.10;99.90
10316;DHT22;5203;48.976;8.306;2022-11-04T01:01:20;11.00;99.90
10316;DHT22;5203;48.976;8.306;2022-11-04T01:03:48;11.00;99.90
10316;DHT22;5203;48.976;8.306;2022-11-04T01:06:14;11.10;99.90
10316;DHT22;5203;48.976;8.306;2022-11-04T01:08:40;11.10;99.90
10316;DHT22;5203;48.976;8.306;2022-11-04T01:11:07;11.00;99.90
10316;DHT22;5203;48.976;8.306;2022-11-04T01:13:33;11.10;99.90
10316;DHT22;5203;48.976;8.306;2022-11-04T01:16:00;11.10;99.90
10316;DHT22;5203;48.976;8.306;2022-11-04T01:18:26;11.10;99.90
10316;DHT22;5203;48.976;8.306;2022-11-04T01:20:52;11.00;99.90
10316;DHT22;5203;48.976;8.306;2022-11-04T01:23:18;11.00;99.90
10316;DHT22;5203;48.976;8.306;2022-11-04T01:25:44;11.00;99.90
10316;DHT22;5203;48.976;8.306;2022-11-04T01:28:09;11.00;99.90
10316;DHT22;5203;48.976;8.306;2022-11-04T01:30:37;10.90;99.90
10316;DHT22;5203;48.976;8.306;2022-11-04T01:33:03;10.90;99.90
10316;DHT22;5203;48.976;8.306;2022-11-04T01:35:30;10.90;99.90
10316;DHT22;5203;48.976;8.306;2022-11-04T01:37:57;10.90;99.90
10316;DHT22;5203;48.976;8.306;2022-11-04T01:40:23;10.80;99.90
10316;DHT22;5203;48.976;8.306;2022-11-04T01:42:49;10.80;99.90
10316;DHT22;5203;48.976;8.306;2022-11-04T01:45:18;10.70;99.90
10316;DHT22;5203;48.976;8.306;2022-11-04T01:48:03;10.80;99.90
10316;DHT22;5203;48.976;8.306;2022-11-04T01:50:31;10.80;99.90
10316;DHT22;5203;48.976;8.306;2022-11-04T01:53:31;10.70;99.90
10316;DHT22;5203;48.976;8.306;2022-11-04T01:56:00;10.70;99.90
10316;DHT22;5203;48.976;8.306;2022-11-04T01:58:34;10.80;99.90
10316;DHT22;5203;48.976;8.306;2022-11-04T02:01:00;10.70;99.90
10316;DHT22;5203;48.976;8.306;2022-11-04T02:03:49;10.70;99.90
10316;DHT22;5203;48.976;8.306;2022-11-04T02:06:18;10.80;99.90
10316;DHT22;5203;48.976;8.306;2022-11-04T02:08:45;10.70;99.90
10316;DHT22;5203;48.976;8.306;2022-11-04T02:11:11;10.70;99.90
10316;DHT22;5203;48.976;8.306;2022-11-04T02:13:57;10.70;99.90
10316;DHT22;5203;48.976;8.306;2022-11-04T02:16:38;10.70;99.90
10316;DHT22;5203;48.976;8.306;2022-11-04T02:27:41;10.60;99.90
10316;DHT22;5203;48.976;8.306;2022-11-04T02:30:14;10.60;99.90
10316;DHT22;5203;48.976;8.306;2022-11-04T02:46:30;10.60;99.90
10316;DHT22;5203;48.976;8.306;2022-11-04T02:49:09;10.50;99.90
10316;DHT22;5203;48.976;8.306;2022-11-04T02:51:50;10.60;99.90
10316;DHT22;5203;48.976;8.306;2022-11-04T02:54:45;10.60;99.90
10316;DHT22;5203;48.976;8.306;2022-11-04T02:57:17;10.70;99.90
10316;DHT22;5203;48.976;8.306;2022-11-04T02:59:53;10.70;99.90
10316;DHT22;5203;48.976;8.306;2022-11-04T03:02:33;10.80;99.90
10316;DHT22;5203;48.976;8.306;2022-11-04T03:05:01;10.70;99.90
10316;DHT22;5203;48.976;8.306;2022-11-04T03:07:32;10.70;99.90
10316;DHT22;5203;48.976;8.306;2022-11-04T03:10:05;10.80;99.90
10316;DHT22;5203;48.976;8.306;2022-11-04T03:12:38;10.70;99.90
10316;DHT22;5203;48.976;8.306;2022-11-04T03:15:09;10.60;99.90
10316;DHT22;5203;48.976;8.306;2022-11-04T03:18:11;10.60;99.90
10316;DHT22;5203;48.976;8.306;2022-11-04T03:20:40;10.60;99.90
10316;DHT22;5203;48.976;8.306;2022-11-04T03:23:06;10.60;99.90
10316;DHT22;5203;48.976;8.306;2022-11-04T03:25:44;10.60;99.90
10316;DHT22;5203;48.976;8.306;2022-11-04T03:28:26;10.60;99.90
10316;DHT22;5203;48.976;8.306;2022-11-04T03:31:00;10.50;99.90
10316;DHT22;5203;48.976;8.306;2022-11-04T03:36:01;10.70;99.90
10316;DHT22;5203;48.976;8.306;2022-11-04T03:38:28;10.70;99.90
10316;DHT22;5203;48.976;8.306;2022-11-04T03:40:54;10.50;99.90
10316;DHT22;5203;48.976;8.306;2022-11-04T03:43:25;10.50;99.90
10316;DHT22;5203;48.976;8.306;2022-11-04T03:45:55;10.40;99.90
10316;DHT22;5203;48.976;8.306;2022-11-04T03:48:21;10.40;99.90
10316;DHT22;5203;48.976;8.306;2022-11-04T03:50:48;10.40;99.90
10316;DHT22;5203;48.976;8.306;2022-11-04T03:53:24;10.40;99.90
10316;DHT22;5203;48.976;8.306;2022-11-04T04:04:06;10.40;99.90
10316;DHT22;5203;48.976;8.306;2022-11-04T04:06:34;10.50;99.90
10316;DHT22;5203;48.976;8.306;2022-11-04T04:09:23;10.60;99.90
10316;DHT22;5203;48.976;8.306;2022-11-04T04:11:56;10.60;99.90
10316;DHT22;5203;48.976;8.306;2022-11-04T04:14:38;10.60;99.90
10316;DHT22;5203;48.976;8.306;2022-11-04T04:17:16;10.60;99.90
10316;DHT22;5203;48.976;8.306;2022-11-04T04:19:49;10.60;99.90
10316;DHT22;5203;48.976;8.306;2022-11-04T04:22:28;10.50;99.90
10316;DHT22;5203;48.976;8.306;2022-11-04T04:24:58;10.50;99.90
10316;DHT22;5203;48.976;8.306;2022-11-04T04:27:43;10.50;99.90
10316;DHT22;5203;48.976;8.306;2022-11-04T04:30:13;10.60;99.90
10316;DHT22;5203;48.976;8.306;2022-11-04T04:32:46;10.60;99.90
10316;DHT22;5203;48.976;8.306;2022-11-04T04:35:13;10.70;99.90
10316;DHT22;5203;48.976;8.306;2022-11-04T04:38:02;10.80;99.90
10316;DHT22;5203;48.976;8.306;2022-11-04T04:40:56;10.80;99.90
10316;DHT22;5203;48.976;8.306;2022-11-04T04:43:43;10.80;99.90
10316;DHT22;5203;48.976;8.306;2022-11-04T04:46:28;10.90;99.90
10316;DHT22;5203;48.976;8.306;2022-11-04T04:49:03;10.90;99.90
10316;DHT22;5203;48.976;8.306;2022-11-04T04:51:29;11.00;99.90
10316;DHT22;5203;48.976;8.306;2022-11-04T04:53:55;11.00;99.90
10316;DHT22;5203;48.976;8.306;2022-11-04T04:56:21;10.90;99.90
10316;DHT22;5203;48.976;8.306;2022-11-04T04:58:46;10.90;99.90
10316;DHT22;5203;48.976;8.306;2022-11-04T05:01:12;10.90;99.90
10316;DHT22;5203;48.976;8.306;2022-11-04T05:03:38;10.90;99.90
10316;DHT22;5203;48.976;8.306;2022-11-04T05:06:03;10.80;99.90
10316;DHT22;5203;48.976;8.306;2022-11-04T05:08:29;10.60;99.90
10316;DHT22;5203;48.976;8.306;2022-11-04T05:10:55;10.50;99.90
10316;DHT22;5203;48.976;8.306;2022-11-04T05:13:20;10.50;99.90
10316;DHT22;5203;48.976;8.306;2022-11-04T05:15:55;10.50;99.90
10316;DHT22;5203;48.976;8.306;2022-11-04T05:18:20;10.60;99.90
10316;DHT22;5203;48.976;8.306;2022-11-04T05:20:46;10.60;99.90
10316;DHT22;5203;48.976;8.306;2022-11-04T05:23:12;10.70;99.90
10316;DHT22;5203;48.976;8.306;2022-11-04T05:25:40;10.70;99.90
10316;DHT22;5203;48.976;8.306;2022-11-04T05:28:06;10.70;99.90
10316;DHT22;5203;48.976;8.306;2022-11-04T05:30:32;10.60;99.90
10316;DHT22;5203;48.976;8.306;2022-11-04T05:32:58;10.60;99.90
10316;DHT22;5203;48.976;8.306;2022-11-04T05:35:24;10.70;99.90
10316;DHT22;5203;48.976;8.306;2022-11-04T05:37:49;10.80;99.90
10316;DHT22;5203;48.976;8.306;2022-11-04T05:40:15;10.70;99.90
10316;DHT22;5203;48.976;8.306;2022-11-04T05:42:41;10.80;99.90
10316;DHT22;5203;48.976;8.306;2022-11-04T05:45:07;10.80;99.90
10316;DHT22;5203;48.976;8.306;2022-11-04T05:47:33;10.80;99.90
10316;DHT22;5203;48.976;8.306;2022-11-04T05:49:59;10.70;99.90
10316;DHT22;5203;48.976;8.306;2022-11-04T05:52:24;10.70;99.90
10316;DHT22;5203;48.976;8.306;2022-11-04T05:54:50;10.50;99.90
10316;DHT22;5203;48.976;8.306;2022-11-04T05:57:16;10.40;99.90
10316;DHT22;5203;48.976;8.306;2022-11-04T05:59:41;10.30;99.90
10316;DHT22;5203;48.976;8.306;2022-11-04T06:02:07;10.10;99.90
10316;DHT22;5203;48.976;8.306;2022-11-04T06:04:33;10.10;99.90
10316;DHT22;5203;48.976;8.306;2022-11-04T06:06:59;10.10;99.90
10316;DHT22;5203;48.976;8.306;2022-11-04T06:09:25;10.20;99.90
10316;DHT22;5203;48.976;8.306;2022-11-04T06:12:14;10.20;99.90
10316;DHT22;5203;48.976;8.306;2022-11-04T06:14:41;10.30;99.90
10316;DHT22;5203;48.976;8.306;2022-11-04T06:17:15;10.40;99.90
10316;DHT22;5203;48.976;8.306;2022-11-04T06:19:41;10.40;99.90
10316;DHT22;5203;48.976;8.306;2022-11-04T06:22:08;10.40;99.90
10316;DHT22;5203;48.976;8.306;2022-11-04T06:24:35;10.40;99.90
10316;DHT22;5203;48.976;8.306;2022-11-04T06:27:01;10.40;99.90
10316;DHT22;5203;48.976;8.306;2022-11-04T06:29:26;10.50;99.90
10316;DHT22;5203;48.976;8.306;2022-11-04T06:31:52;10.60;99.90
10316;DHT22;5203;48.976;8.306;2022-11-04T06:34:17;10.60;99.90
10316;DHT22;5203;48.976;8.306;2022-11-04T06:36:43;10.50;99.90
10316;DHT22;5203;48.976;8.306;2022-11-04T06:39:10;10.70;99.90
10316;DHT22;5203;48.976;8.306;2022-11-04T06:41:36;10.60;99.90
10316;DHT22;5203;48.976;8.306;2022-11-04T06:44:02;10.70;99.90
10316;DHT22;5203;48.976;8.306;2022-11-04T06:46:38;10.70;99.90
10316;DHT22;5203;48.976;8.306;2022-11-04T06:49:05;10.60;99.90
10316;DHT22;5203;48.976;8.306;2022-11-04T06:51:32;10.60;99.90
10316;DHT22;5203;48.976;8.306;2022-11-04T06:53:58;10.60;99.90
10316;DHT22;5203;48.976;8.306;2022-11-04T06:56:24;10.60;99.90
10316;DHT22;5203;48.976;8.306;2022-11-04T06:58:51;10.70;99.90
10316;DHT22;5203;48.976;8.306;2022-11-04T07:01:17;10.70;99.90
10316;DHT22;5203;48.976;8.306;2022-11-04T07:03:47;10.70;99.90
10316;DHT22;5203;48.976;8.306;2022-11-04T07:06:12;10.70;99.90
10316;DHT22;5203;48.976;8.306;2022-11-04T07:08:38;10.70;99.90
10316;DHT22;5203;48.976;8.306;2022-11-04T07:11:05;10.80;99.90
10316;DHT22;5203;48.976;8.306;2022-11-04T07:13:31;10.80;99.90
10316;DHT22;5203;48.976;8.306;2022-11-04T07:15:57;10.90;99.90
10316;DHT22;5203;48.976;8.306;2022-11-04T07:18:23;10.90;99.90
10316;DHT22;5203;48.976;8.306;2022-11-04T07:20:48;10.90;99.90
10316;DHT22;5203;48.976;8.306;2022-11-04T07:23:14;10.90;99.90
10316;DHT22;5203;48.976;8.306;2022-11-04T07:25:40;11.00;99.90
10316;DHT22;5203;48.976;8.306;2022-11-04T07:28:07;11.10;99.90
10316;DHT22;5203;48.976;8.306;2022-11-04T07:30:33;11.20;99.90
10316;DHT22;5203;48.976;8.306;2022-11-04T07:32:59;11.20;99.90
10316;DHT22;5203;48.976;8.306;2022-11-04T07:35:24;11.20;99.90
10316;DHT22;5203;48.976;8.306;2022-11-04T07:37:50;11.20;99.90
10316;DHT22;5203;48.976;8.306;2022-11-04T07:40:16;11.30;99.90
10316;DHT22;5203;48.976;8.306;2022-11-04T07:42:42;11.30;99.90
10316;DHT22;5203;48.976;8.306;2022-11-04T07:45:09;11.40;99.90
10316;DHT22;5203;48.976;8.306;2022-11-04T07:47:34;11.40;99.90
10316;DHT22;5203;48.976;8.306;2022-11-04T07:50:00;11.40;99.90
10316;DHT22;5203;48.976;8.306;2022-11-04T07:52:26;11.30;99.90
10316;DHT22;5203;48.976;8.306;2022-11-04T07:54:52;11.40;99.90
10316;DHT22;5203;48.976;8.306;2022-11-04T07:57:19;11.10;99.90
10316;DHT22;5203;48.976;8.306;2022-11-04T07:59:44;11.00;99.90
10316;DHT22;5203;48.976;8.306;2022-11-04T08:02:10;11.00;99.90
10316;DHT22;5203;48.976;8.306;2022-11-04T08:04:36;11.00;99.90
10316;DHT22;5203;48.976;8.306;2022-11-04T08:07:02;11.00;99.90
10316;DHT22;5203;48.976;8.306;2022-11-04T08:09:30;11.20;99.90
10316;DHT22;5203;48.976;8.306;2022-11-04T08:11:56;11.20;99.90
10316;DHT22;5203;48.976;8.306;2022-11-04T08:14:21;11.20;99.60
10316;DHT22;5203;48.976;8.306;2022-11-04T08:16:49;11.30;99.90
10316;DHT22;5203;48.976;8.306;2022-11-04T08:19:15;11.30;99.90
10316;DHT22;5203;48.976;8.306;2022-11-04T08:21:41;11.30;99.90
10316;DHT22;5203;48.976;8.306;2022-11-04T08:24:08;11.40;99.90
10316;DHT22;5203;48.976;8.306;2022-11-04T08:26:34;11.40;99.90
10316;DHT22;5203;48.976;8.306;2022-11-04T08:28:59;11.40;99.90
10316;DHT22;5203;48.976;8.306;2022-11-04T08:31:28;11.40;99.90
10316;DHT22;5203;48.976;8.306;2022-11-04T08:33:56;11.50;99.90
10316;DHT22;5203;48.976;8.306;2022-11-04T08:36:30;11.60;99.90
10316;DHT22;5203;48.976;8.306;2022-11-04T08:38:56;11.70;99.90
10316;DHT22;5203;48.976;8.306;2022-11-04T08:41:26;11.70;99.90
10316;DHT22;5203;48.976;8.306;2022-11-04T08:43:54;11.80;99.90
10316;DHT22;5203;48.976;8.306;2022-11-04T08:46:21;11.70;99.00
10316;DHT22;5203;48.976;8.306;2022-11-04T08:48:47;11.70;99.20
10316;DHT22;5203;48.976;8.306;2022-11-04T08:51:24;11.70;99.50
10316;DHT22;5203;48.976;8.306;2022-11-04T08:53:51;11.60;99.90
10316;DHT22;5203;48.976;8.306;2022-11-04T08:58:48;11.70;99.90
10316;DHT22;5203;48.976;8.306;2022-11-04T09:01:15;11.90;99.90
10316;DHT22;5203;48.976;8.306;2022-11-04T09:03:41;12.00;97.40
10316;DHT22;5203;48.976;8.306;2022-11-04T09:06:11;11.90;99.30
10316;DHT22;5203;48.976;8.306;2022-11-04T09:08:38;12.00;99.10
10316;DHT22;5203;48.976;8.306;2022-11-04T09:11:09;12.20;96.10
10316;DHT22;5203;48.976;8.306;2022-11-04T09:13:37;12.20;98.30
10316;DHT22;5203;48.976;8.306;2022-11-04T09:16:03;12.10;96.50
10316;DHT22;5203;48.976;8.306;2022-11-04T09:18:29;12.10;98.20
10316;DHT22;5203;48.976;8.306;2022-11-04T09:20:59;12.10;97.60
10316;DHT22;5203;48.976;8.306;2022-11-04T09:23:25;12.30;97.80
10316;DHT22;5203;48.976;8.306;2022-11-04T09:25:51;12.20;95.50
10316;DHT22;5203;48.976;8.306;2022-11-04T09:28:17;12.30;94.70
10316;DHT22;5203;48.976;8.306;2022-11-04T09:30:42;12.50;96.00
10316;DHT22;5203;48.976;8.306;2022-11-04T09:33:08;12.90;92.80
10316;DHT22;5203;48.976;8.306;2022-11-04T09:35:35;13.00;91.80
10316;DHT22;5203;48.976;8.306;2022-11-04T09:38:01;13.10;88.70
10316;DHT22;5203;48.976;8.306;2022-11-04T09:40:27;13.10;87.60
10316;DHT22;5203;48.976;8.306;2022-11-04T09:45:49;12.80;89.20
10316;DHT22;5203;48.976;8.306;2022-11-04T09:48:26;12.50;92.60
10316;DHT22;5203;48.976;8.306;2022-11-04T09:50:54;12.50;91.80
10316;DHT22;5203;48.976;8.306;2022-11-04T09:53:41;12.60;92.00
10316;DHT22;5203;48.976;8.306;2022-11-04T09:56:44;12.70;92.80
10316;DHT22;5203;48.976;8.306;2022-11-04T09:59:14;12.60;89.60
10316;DHT22;5203;48.976;8.306;2022-11-04T10:01:44;12.60;91.70
10316;DHT22;5203;48.976;8.306;2022-11-04T10:22:59;12.60;90.00
10316;DHT22;5203;48.976;8.306;2022-11-04T10:28:18;12.50;90.60
10316;DHT22;5203;48.976;8.306;2022-11-04T10:30:49;12.60;89.80
10316;DHT22;5203;48.976;8.306;2022-11-04T10:33:39;12.70;92.50
10316;DHT22;5203;48.976;8.306;2022-11-04T10:36:11;12.80;91.20
10316;DHT22;5203;48.976;8.306;2022-11-04T10:38:54;13.10;86.40
10316;DHT22;5203;48.976;8.306;2022-11-04T10:41:25;13.10;87.70
10316;DHT22;5203;48.976;8.306;2022-11-04T10:44:02;12.80;91.00
10316;DHT22;5203;48.976;8.306;2022-11-04T10:51:51;12.90;95.40
10316;DHT22;5203;48.976;8.306;2022-11-04T10:54:17;12.90;97.30
10316;DHT22;5203;48.976;8.306;2022-11-04T10:56:51;12.90;96.70
10316;DHT22;5203;48.976;8.306;2022-11-04T11:02:11;12.90;99.90
10316;DHT22;5203;48.976;8.306;2022-11-04T11:04:37;12.90;99.90
10316;DHT22;5203;48.976;8.306;2022-11-04T11:07:07;12.90;99.90
10316;DHT22;5203;48.976;8.306;2022-11-04T11:09:36;13.00;99.90
10316;DHT22;5203;48.976;8.306;2022-11-04T11:14:40;13.20;99.80
10316;DHT22;5203;48.976;8.306;2022-11-04T11:20:01;13.50;99.00
10316;DHT22;5203;48.976;8.306;2022-11-04T11:22:36;13.90;96.80
10316;DHT22;5203;48.976;8.306;2022-11-04T11:25:41;14.10;95.60
10316;DHT22;5203;48.976;8.306;2022-11-04T11:28:21;14.10;93.70
10316;DHT22;5203;48.976;8.306;2022-11-04T11:33:29;14.20;94.50
10316;DHT22;5203;48.976;8.306;2022-11-04T11:41:49;14.70;91.20
10316;DHT22;5203;48.976;8.306;2022-11-04T11:47:34;15.40;89.40
10316;DHT22;5203;48.976;8.306;2022-11-04T11:52:39;15.70;84.80
10316;DHT22;5203;48.976;8.306;2022-11-04T11:55:15;15.60;82.50
10316;DHT22;5203;48.976;8.306;2022-11-04T12:00:14;15.80;82.70
10316;DHT22;5203;48.976;8.306;2022-11-04T12:05:31;15.90;84.20
10316;DHT22;5203;48.976;8.306;2022-11-04T12:10:53;16.80;75.90
10316;DHT22;5203;48.976;8.306;2022-11-04T12:13:29;17.40;74.10
10316;DHT22;5203;48.976;8.306;2022-11-04T12:16:32;17.60;69.50
10316;DHT22;5203;48.976;8.306;2022-11-04T12:22:16;17.40;69.40
10316;DHT22;5203;48.976;8.306;2022-11-04T12:36:01;16.20;70.50
10316;DHT22;5203;48.976;8.306;2022-11-04T12:41:25;15.90;75.10
10316;DHT22;5203;48.976;8.306;2022-11-04T12:57:54;17.20;62.90
10316;DHT22;5203;48.976;8.306;2022-11-04T13:00:23;17.30;61.50
10316;DHT22;5203;48.976;8.306;2022-11-04T13:05:51;16.80;66.10
10316;DHT22;5203;48.976;8.306;2022-11-04T13:08:27;16.80;63.30
10316;DHT22;5203;48.976;8.306;2022-11-04T13:11:04;17.40;60.20
10316;DHT22;5203;48.976;8.306;2022-11-04T13:14:07;17.60;60.00
10316;DHT22;5203;48.976;8.306;2022-11-04T13:16:41;16.90;61.90
10316;DHT22;5203;48.976;8.306;2022-11-04T13:19:21;16.40;61.00
10316;DHT22;5203;48.976;8.306;2022-11-04T13:21:48;15.80;64.50
10316;DHT22;5203;48.976;8.306;2022-11-04T13:26:48;15.60;67.00
10316;DHT22;5203;48.976;8.306;2022-11-04T13:29:18;15.90;64.00
10316;DHT22;5203;48.976;8.306;2022-11-04T13:34:44;16.00;68.30
10316;DHT22;5203;48.976;8.306;2022-11-04T13:37:17;16.10;63.10
10316;DHT22;5203;48.976;8.306;2022-11-04T13:39:52;16.20;63.80
10316;DHT22;5203;48.976;8.306;2022-11-04T13:45:19;15.70;65.10
10316;DHT22;5203;48.976;8.306;2022-11-04T13:47:53;15.50;66.80
10316;DHT22;5203;48.976;8.306;2022-11-04T13:50:38;15.40;68.60
10316;DHT22;5203;48.976;8.306;2022-11-04T13:53:06;15.10;72.20
10316;DHT22;5203;48.976;8.306;2022-11-04T13:55:34;15.20;70.10
10316;DHT22;5203;48.976;8.306;2022-11-04T13:58:04;15.30;68.70
10316;DHT22;5203;48.976;8.306;2022-11-04T14:00:32;14.90;70.70
10316;DHT22;5203;48.976;8.306;2022-11-04T14:02:59;14.80;70.20
10316;DHT22;5203;48.976;8.306;2022-11-04T14:18:47;15.00;73.40
10316;DHT22;5203;48.976;8.306;2022-11-04T14:21:19;15.00;71.30
10316;DHT22;5203;48.976;8.306;2022-11-04T14:23:57;14.80;74.40
10316;DHT22;5203;48.976;8.306;2022-11-04T14:26:46;14.80;76.20
10316;DHT22;5203;48.976;8.306;2022-11-04T14:29:23;14.80;76.20
10316;DHT22;5203;48.976;8.306;2022-11-04T14:31:55;14.90;78.40
10316;DHT22;5203;48.976;8.306;2022-11-04T14:34:35;15.10;78.10
10316;DHT22;5203;48.976;8.306;2022-11-04T14:37:28;15.70;76.50
10316;DHT22;5203;48.976;8.306;2022-11-04T14:39:58;16.40;73.80
10316;DHT22;5203;48.976;8.306;2022-11-04T14:42:45;16.70;72.70
10316;DHT22;5203;48.976;8.306;2022-11-04T14:45:21;16.40;72.80
10316;DHT22;5203;48.976;8.306;2022-11-04T14:47:55;16.20;74.60
10316;DHT22;5203;48.976;8.306;2022-11-04T14:50:26;15.90;75.60
10316;DHT22;5203;48.976;8.306;2022-11-04T14:53:02;15.60;76.40
10316;DHT22;5203;48.976;8.306;2022-11-04T14:55:30;15.30;77.80
10316;DHT22;5203;48.976;8.306;2022-11-04T14:58:12;15.40;77.80
10316;DHT22;5203;48.976;8.306;2022-11-04T15:00:50;15.40;77.70
10316;DHT22;5203;48.976;8.306;2022-11-04T15:05:51;15.10;79.80
10316;DHT22;5203;48.976;8.306;2022-11-04T15:08:41;15.10;80.10
10316;DHT22;5203;48.976;8.306;2022-11-04T15:11:11;15.00;80.00
10316;DHT22;5203;48.976;8.306;2022-11-04T15:13:49;14.80;81.90
10316;DHT22;5203;48.976;8.306;2022-11-04T15:16:19;14.70;82.90
10316;DHT22;5203;48.976;8.306;2022-11-04T15:18:46;14.60;83.00
10316;DHT22;5203;48.976;8.306;2022-11-04T15:21:13;14.50;84.60
10316;DHT22;5203;48.976;8.306;2022-11-04T15:26:13;14.50;84.80
10316;DHT22;5203;48.976;8.306;2022-11-04T15:28:46;14.40;84.70
10316;DHT22;5203;48.976;8.306;2022-11-04T15:31:32;14.30;84.80
10316;DHT22;5203;48.976;8.306;2022-11-04T15:34:04;14.30;86.20
10316;DHT22;5203;48.976;8.306;2022-11-04T15:36:40;14.30;87.00
10316;DHT22;5203;48.976;8.306;2022-11-04T15:41:38;14.20;88.70
10316;DHT22;5203;48.976;8.306;2022-11-04T15:44:28;14.10;88.90
10316;DHT22;5203;48.976;8.306;2022-11-04T15:46:59;14.10;88.50
10316;DHT22;5203;48.976;8.306;2022-11-04T15:52:05;14.00;90.00
10316;DHT22;5203;48.976;8.306;2022-11-04T15:54:34;14.00;91.10
10316;DHT22;5203;48.976;8.306;2022-11-04T15:57:20;13.90;92.20
10316;DHT22;5203;48.976;8.306;2022-11-04T16:02:27;13.70;93.80
10316;DHT22;5203;48.976;8.306;2022-11-04T16:05:23;13.60;95.10
10316;DHT22;5203;48.976;8.306;2022-11-04T16:07:51;13.60;95.10
10316;DHT22;5203;48.976;8.306;2022-11-04T16:10:30;13.60;95.60
10316;DHT22;5203;48.976;8.306;2022-11-04T16:13:00;13.50;96.50
10316;DHT22;5203;48.976;8.306;2022-11-04T16:18:03;13.40;97.20
10316;DHT22;5203;48.976;8.306;2022-11-04T16:20:30;13.30;97.70
10316;DHT22;5203;48.976;8.306;2022-11-04T16:22:59;13.40;97.70
10316;DHT22;5203;48.976;8.306;2022-11-04T16:25:37;13.50;97.30
10316;DHT22;5203;48.976;8.306;2022-11-04T16:28:03;13.50;97.70
10316;DHT22;5203;48.976;8.306;2022-11-04T16:30:28;13.50;97.90
10316;DHT22;5203;48.976;8.306;2022-11-04T16:33:06;13.40;97.80
10316;DHT22;5203;48.976;8.306;2022-11-04T16:35:34;13.30;98.50
10316;DHT22;5203;48.976;8.306;2022-11-04T16:38:01;13.10;98.50
10316;DHT22;5203;48.976;8.306;2022-11-04T16:40:27;13.10;99.30
10316;DHT22;5203;48.976;8.306;2022-11-04T16:42:53;13.00;99.50
10316;DHT22;5203;48.976;8.306;2022-11-04T16:47:53;13.10;99.80
10316;DHT22;5203;48.976;8.306;2022-11-04T16:50:19;13.20;99.00
10316;DHT22;5203;48.976;8.306;2022-11-04T16:52:45;13.20;99.50
10316;DHT22;5203;48.976;8.306;2022-11-04T16:55:12;13.20;99.60
10316;DHT22;5203;48.976;8.306;2022-11-04T16:57:38;13.20;99.90
10316;DHT22;5203;48.976;8.306;2022-11-04T17:00:05;13.10;99.90
10316;DHT22;5203;48.976;8.306;2022-11-04T17:02:34;13.10;99.80
10316;DHT22;5203;48.976;8.306;2022-11-04T17:05:06;13.00;99.90
10316;DHT22;5203;48.976;8.306;2022-11-04T17:07:33;13.00;99.90
10316;DHT22;5203;48.976;8.306;2022-11-04T17:10:03;13.00;99.90
10316;DHT22;5203;48.976;8.306;2022-11-04T17:12:29;13.00;99.90
10316;DHT22;5203;48.976;8.306;2022-11-04T17:14:54;13.00;99.90
10316;DHT22;5203;48.976;8.306;2022-11-04T17:17:20;13.10;99.70
10316;DHT22;5203;48.976;8.306;2022-11-04T17:19:45;13.20;99.50
10316;DHT22;5203;48.976;8.306;2022-11-04T17:22:11;13.20;99.80
10316;DHT22;5203;48.976;8.306;2022-11-04T17:24:37;13.10;99.90
10316;DHT22;5203;48.976;8.306;2022-11-04T17:27:03;13.10;99.90
10316;DHT22;5203;48.976;8.306;2022-11-04T17:29:28;13.10;99.90
10316;DHT22;5203;48.976;8.306;2022-11-04T17:31:55;13.00;99.90
10316;DHT22;5203;48.976;8.306;2022-11-04T17:34:21;13.00;99.90
10316;DHT22;5203;48.976;8.306;2022-11-04T17:36:51;13.00;99.90
10316;DHT22;5203;48.976;8.306;2022-11-04T17:39:17;13.00;99.90
10316;DHT22;5203;48.976;8.306;2022-11-04T17:41:42;13.10;99.90
10316;DHT22;5203;48.976;8.306;2022-11-04T17:44:26;13.00;99.90
10316;DHT22;5203;48.976;8.306;2022-11-04T17:46:52;13.10;99.90
10316;DHT22;5203;48.976;8.306;2022-11-04T17:49:21;13.00;99.90
10316;DHT22;5203;48.976;8.306;2022-11-04T17:51:49;13.00;99.90
10316;DHT22;5203;48.976;8.306;2022-11-04T17:54:15;13.00;99.90
10316;DHT22;5203;48.976;8.306;2022-11-04T17:56:41;13.00;99.90
10316;DHT22;5203;48.976;8.306;2022-11-04T17:59:09;12.90;99.90
10316;DHT22;5203;48.976;8.306;2022-11-04T18:01:35;13.00;99.90
10316;DHT22;5203;48.976;8.306;2022-11-04T18:04:01;13.00;99.90
10316;DHT22;5203;48.976;8.306;2022-11-04T18:06:30;13.00;99.90
10316;DHT22;5203;48.976;8.306;2022-11-04T18:08:56;13.00;99.90
10316;DHT22;5203;48.976;8.306;2022-11-04T18:11:25;12.90;99.90
10316;DHT22;5203;48.976;8.306;2022-11-04T18:14:10;12.80;99.90
10316;DHT22;5203;48.976;8.306;2022-11-04T18:16:38;12.60;99.90
10316;DHT22;5203;48.976;8.306;2022-11-04T18:19:04;12.40;99.90
10316;DHT22;5203;48.976;8.306;2022-11-04T18:21:30;12.40;99.90
10316;DHT22;5203;48.976;8.306;2022-11-04T18:23:57;12.40;99.90
10316;DHT22;5203;48.976;8.306;2022-11-04T18:26:23;12.50;99.90
10316;DHT22;5203;48.976;8.306;2022-11-04T18:28:50;12.50;99.90
10316;DHT22;5203;48.976;8.306;2022-11-04T18:31:25;12.60;99.90
10316;DHT22;5203;48.976;8.306;2022-11-04T18:33:52;12.60;99.90
10316;DHT22;5203;48.976;8.306;2022-11-04T18:36:18;12.50;99.90
10316;DHT22;5203;48.976;8.306;2022-11-04T18:38:44;12.40;99.90
10316;DHT22;5203;48.976;8.306;2022-11-04T18:41:10;12.40;99.90
10316;DHT22;5203;48.976;8.306;2022-11-04T18:43:36;12.40;99.90
10316;DHT22;5203;48.976;8.306;2022-11-04T18:46:10;12.40;99.90
10316;DHT22;5203;48.976;8.306;2022-11-04T18:48:35;12.50;99.90
10316;DHT22;5203;48.976;8.306;2022-11-04T18:51:04;12.40;99.90
10316;DHT22;5203;48.976;8.306;2022-11-04T18:53:30;12.50;99.90
10316;DHT22;5203;48.976;8.306;2022-11-04T18:56:08;12.50;99.90